LDZD/ZAD METAR and TAF weather

Enter ICAO airport designator
Station Type Date Time Source
LDZD METAR 2023/09/27 01:30 UTC NOAA

LDZD 270130Z 07008KT 040V100 CAVOK 21/10 Q1017


Station Type Date Time Source
LDZD Decoded METAR 2023/09/27 01:30 UTC NOAA

Zadar / Zemunik, Croatia (LDZD) 44-06N 015-21E
Sep 26, 2023 - 09:30 PM EDT / 2023.09.27 0130 UTC
Wind: from the ENE (070 degrees) at 9 MPH (8 KT) (direction variable):0
Visibility: greater than 7 mile(s):0
Temperature: 69 F (21 C)
Dew Point: 50 F (10 C)
Relative Humidity: 49%
Pressure (altimeter): 30.03 in. Hg (1017 hPa)
ob: LDZD 270130Z 07008KT 040V100 CAVOK 21/10 Q1017
cycle: 1

Station Type Date Time Source
LDZD TAF 2023/09/26 18:27 UTC NOAA

TAF LDZD 261725Z 2618/2718 05012KT CAVOK TX29/2712Z TN16/2705Z
BECMG 2702/2704 06008KT PROB30
TEMPO 2711/2714 32009KT
TEMPO 2715/2718 04012KT

Example: see airport list